• Join FlightAware (Why Join?)
  • Login
  • US Flag 
08:39PM EDT


 

Airport Tracker/Info


-or-


 

Live Flight TrackerFlight Track Log ✈ RPA3247 ✈ 03-May-2013 ✈ KALB - KDCA

Flight Track Log - Related Links

Times and Time Zones

All times are in EDT time to prevent confusion due to time zone crossing. See the RPA3247 flight status page for this flight to view local times or setup timezone preferences in your user account.

Time Position Orientation Groundspeed Altitude Reporting Facility
EDT Latitude Longitude Course Direction KTS MPH feet Rate Location/Type
05:42PM 42.7503 -73.8311 171° South 154 177 1,400  Level Boston Center
05:44PM 42.4720 -74.0478 171° South  Level Estimated
05:44PM 42.7764 -73.9139 293° West 236 272 4,000  Level Boston Center
05:44PM 42.8342 -73.9661 326° Northwest 275 316 6,400 2,700 Climbing Boston Center
05:45PM 42.3795 -74.1292 170° South  Level Estimated
05:45PM 42.8917 -74.0186 326° Northwest 281 323 9,200  Level Boston Center
05:46PM 42.2870 -74.2104 180° South  Level Estimated
05:46PM 42.9656 -74.0942 323° Northwest 295 339 11,500  Level Boston Center
05:47PM 42.1944 -74.2914 169° South  Level Estimated
05:47PM 43.0314 -74.1586 324° Northwest 314 361 13,800  Level Boston Center
05:48PM 42.1017 -74.3721 171° South  Level Estimated
05:48PM 43.1092 -74.2461 321° Northwest 325 374 16,300  Level Boston Center
05:49PM 43.0969 -74.3594 262° West 314 361 18,100 1,620 Climbing Boston Center
05:50PM 42.9928 -74.3589 180° South 264 304 19,600 1,500 Climbing Boston Center
05:51PM 42.8958 -74.2964 155° Southeast 312 359 21,100 1,500 Climbing Boston Center
05:52PM 42.7969 -74.2311 154° Southeast 362 417 22,600 1,500 Climbing Boston Center
05:53PM 42.6914 -74.1717 158° South 389 448 24,100 1,380 Climbing Boston Center
05:54PM 42.5903 -74.1067 155° Southeast 400 460 25,400 1,260 Climbing Boston Center
05:55PM 42.4831 -74.0392 155° Southeast 412 474 26,700 1,200 Climbing Boston Center
05:56PM 42.3756 -73.9717 155° Southeast 419 482 27,800 600 Climbing Boston Center
05:57PM 42.2639 -73.9044 156° South 431 496 28,000 60 Climbing Boston Center
05:58PM 42.1583 -73.8403 156° South 431 496 28,000  Level Boston Center
05:59PM 42.0528 -73.7767 156° South 420 483 28,000  Level Boston Center
06:00PM 41.9494 -73.7131 155° Southeast 415 478 28,000  Level Boston Center
06:01PM 41.8436 -73.6494 156° South 415 478 28,000  Level Boston Center
06:03PM 41.7339 -73.6003 162° South 415 478 28,000  Level Boston Center
06:04PM 41.5942 -73.5947 178° South 415 478 28,000  Level Boston Center
06:05PM 41.4922 -73.5903 178° South 415 478 28,000  Level Boston Center
06:06PM 41.2817 -73.6094 184° South 420 483 28,000  Level New York Center
06:07PM 41.2019 -73.7164 225° Southwest 393 452 28,000  Level New York Center
06:08PM 41.1344 -73.8344 233° Southwest 393 452 28,000  Level New York Center
06:09PM 41.0647 -73.9497 231° Southwest 403 464 28,000  Level New York Center
06:10PM 40.9969 -74.0647 232° Southwest 403 464 28,000  Level New York Center
06:11PM 40.9164 -74.1897 230° Southwest 408 470 28,000  Level New York Center
06:12PM 40.8461 -74.3069 232° Southwest 413 475 28,000  Level New York Center
06:13PM 40.7761 -74.4211 231° Southwest 413 475 28,000  Level New York Center
06:14PM 40.7058 -74.5350 231° Southwest 413 475 28,000 -480 Level New York Center
06:15PM 40.6192 -74.6369 222° Southwest 413 475 27,100 -1,620 Descending New York Center
06:16PM 40.5325 -74.7386 222° Southwest 419 482 24,800 -1,680 Descending New York Center
06:17PM 40.4497 -74.8400 223° Southwest 419 482 23,800 -1,620 Descending New York Center
06:18PM 40.3753 -74.9475 228° Southwest 409 471 21,600 -1,920 Descending New York Center
06:19PM 40.3106 -75.0606 233° Southwest 404 465 20,000 -840 Descending New York Center
06:20PM 40.2503 -75.1711 234° Southwest 397 457 20,000  Level New York Center
06:21PM 40.1875 -75.2867 235° Southwest 392 451 20,000  Level New York Center
06:22PM 40.1208 -75.3936 231° Southwest 392 451 20,000  Level New York Center
06:23PM 40.0478 -75.5000 228° Southwest 397 457 20,000  Level New York Center
06:24PM 39.9753 -75.5953 225° Southwest 397 457 20,000  Level New York Center
06:25PM 39.9042 -75.7014 229° Southwest 392 451 20,000  Level New York Center
06:26PM 39.8372 -75.8075 231° Southwest 392 451 20,000  Level New York Center
06:27PM 39.7678 -75.9158 230° Southwest 392 451 20,000 -300 Level New York Center
06:28PM 39.7047 -76.0192 232° Southwest 387 445 19,400 -1,200 Descending New York Center
06:29PM 39.6356 -76.1247 230° Southwest 387 445 17,600 -1,920 Descending New York Center
06:30PM 39.5667 -76.2167 226° Southwest 372 428 15,800 -2,040 Descending Potomac TRACON
06:31PM 39.5167 -76.3167 237° Southwest 349 402 13,700 -1,860 Descending Potomac TRACON
06:32PM 39.4500 -76.4167 229° Southwest 331 381 12,100 -900 Descending Potomac TRACON
06:33PM 39.3833 -76.4833 218° Southwest 326 375 12,000 -60 Descending Potomac TRACON
06:34PM 39.3167 -76.5500 218° Southwest 327 376 12,000 -600 Level Potomac TRACON
06:35PM 39.2333 -76.6000 205° Southwest 312 359 10,800 -1,020 Descending Potomac TRACON
06:36PM 39.1667 -76.6667 218° Southwest 274 315 10,000 -600 Descending Potomac TRACON
06:37PM 39.1167 -76.7167 218° Southwest 243 280 9,600 -780 Descending Potomac TRACON
06:38PM 39.0667 -76.7833 226° Southwest 242 278 8,500 -1,200 Descending Potomac TRACON
06:39PM 39.0167 -76.8333 218° Southwest 242 278 7,300 -1,200 Descending Potomac TRACON
06:40PM 38.9667 -76.9000 226° Southwest 243 280 6,200 -660 Descending Potomac TRACON
06:41PM 38.9667 -76.9833 270° West 252 290 6,000 -600 Descending Potomac TRACON
06:42PM 39.0000 -77.0500 303° West 220 253 5,100 -540 Descending Potomac TRACON
06:43PM 39.0333 -77.1000 311° West 218 251 5,000 -360 Descending Potomac TRACON
06:44PM 39.0833 -77.1667 314° West 216 249 4,500 -780 Descending Potomac TRACON
06:45PM 39.0500 -77.2167 229° Southwest 197 227 3,500 -780 Descending Potomac TRACON
06:46PM 39.0167 -77.2000 159° South 171 197 3,000 -300 Descending Potomac TRACON
06:47PM 38.9833 -77.1667 142° Southeast 168 193 3,000  Level Potomac TRACON